createdAt,value
2022-08-18T00:00:54.881Z,18.87
2022-08-18T00:02:04.815Z,18.96
2022-08-18T00:03:13.213Z,18.96
2022-08-18T00:04:35.439Z,18.87
2022-08-18T00:05:38.731Z,18.88
2022-08-18T00:06:42.014Z,18.90
2022-08-18T00:07:47.140Z,18.93
2022-08-18T00:08:48.879Z,18.94
2022-08-18T00:09:55.117Z,18.95
2022-08-18T00:10:58.222Z,18.94
2022-08-18T00:12:03.157Z,18.92
2022-08-18T00:13:04.742Z,18.95
2022-08-18T00:14:06.707Z,18.90
2022-08-18T00:15:11.463Z,18.88
2022-08-18T00:16:13.011Z,18.83
2022-08-18T00:17:15.577Z,18.80
2022-08-18T00:18:17.308Z,18.82
2022-08-18T00:19:18.864Z,18.74
2022-08-18T00:20:23.194Z,18.75
2022-08-18T00:21:24.918Z,18.82
2022-08-18T00:22:26.851Z,18.82
2022-08-18T00:23:32.481Z,18.85
2022-08-18T00:24:35.081Z,18.86
2022-08-18T00:25:37.027Z,18.83
2022-08-18T00:26:38.643Z,18.87
2022-08-18T00:27:41.464Z,18.83
2022-08-18T00:28:43.172Z,18.84
2022-08-18T00:29:44.772Z,18.87
2022-08-18T00:30:46.401Z,18.88
2022-08-18T00:31:49.753Z,18.91
2022-08-18T00:32:54.669Z,18.90
2022-08-18T00:33:56.256Z,18.86
2022-08-18T00:34:57.944Z,18.87
2022-08-18T00:35:59.615Z,18.81
2022-08-18T00:37:01.154Z,18.83
2022-08-18T00:38:05.675Z,18.83
2022-08-18T00:39:07.399Z,18.83
2022-08-18T00:40:13.475Z,18.82
2022-08-18T00:41:15.105Z,18.80
2022-08-18T00:42:27.309Z,18.84
2022-08-18T00:43:47.549Z,18.89
2022-08-18T00:44:49.358Z,18.90
2022-08-18T00:45:51.317Z,18.92
2022-08-18T00:46:52.892Z,18.86
2022-08-18T00:47:55.394Z,18.73
2022-08-18T00:48:57.673Z,18.50
2022-08-18T00:50:00.019Z,18.85
2022-08-18T00:51:08.117Z,18.84
2022-08-18T00:52:13.543Z,18.87
2022-08-18T00:53:27.571Z,18.88
2022-08-18T00:54:31.644Z,18.91
2022-08-18T00:55:34.044Z,18.95
2022-08-18T00:56:45.074Z,18.96
2022-08-18T00:57:50.763Z,18.97
2022-08-18T00:58:59.888Z,18.95
2022-08-18T01:00:11.953Z,18.93
2022-08-18T01:01:15.926Z,18.96
2022-08-18T01:02:22.816Z,18.96
2022-08-18T01:03:25.342Z,18.91
2022-08-18T01:04:32.569Z,18.87
2022-08-18T01:05:40.941Z,18.83
2022-08-18T01:06:49.381Z,18.80
2022-08-18T01:07:51.469Z,18.73
2022-08-18T01:08:54.373Z,18.76
2022-08-18T01:09:59.523Z,18.75
2022-08-18T01:11:02.806Z,18.73
2022-08-18T01:12:45.217Z,18.70
2022-08-18T01:13:29.540Z,18.59
2022-08-18T01:14:31.631Z,18.52
2022-08-18T01:15:33.712Z,18.47
2022-08-18T01:16:57.595Z,18.47
2022-08-18T01:18:22.978Z,18.44
2022-08-18T01:19:45.338Z,18.40
2022-08-18T01:21:23.628Z,18.37
2022-08-18T01:22:44.144Z,18.41
2022-08-18T01:23:47.371Z,18.44
2022-08-18T01:25:09.836Z,18.49
2022-08-18T01:26:12.008Z,18.49
2022-08-18T01:27:18.618Z,18.49
2022-08-18T01:28:21.078Z,18.49
2022-08-18T01:29:22.620Z,18.46
2022-08-18T01:30:25.821Z,18.43
2022-08-18T01:31:38.219Z,18.39
2022-08-18T01:32:41.711Z,18.44
2022-08-18T01:33:44.457Z,18.47
2022-08-18T01:34:51.829Z,18.49
2022-08-18T01:35:54.328Z,18.52
2022-08-18T01:36:56.738Z,18.53
2022-08-18T01:37:58.275Z,18.55
2022-08-18T01:39:00.637Z,18.53
2022-08-18T01:41:24.474Z,18.46
2022-08-18T01:41:30.751Z,18.53
2022-08-18T01:42:33.187Z,18.51
2022-08-18T01:43:36.676Z,18.55
2022-08-18T01:44:41.622Z,18.54
2022-08-18T01:45:43.551Z,18.54
2022-08-18T01:46:45.120Z,18.55
2022-08-18T01:47:47.713Z,18.53
2022-08-18T01:48:50.831Z,18.58
2022-08-18T01:49:53.345Z,18.59
2022-08-18T01:50:56.995Z,18.60
2022-08-18T01:51:58.541Z,18.61
2022-08-18T01:53:00.720Z,18.60
2022-08-18T01:54:04.585Z,18.60
2022-08-18T01:55:07.993Z,18.57
2022-08-18T01:56:09.589Z,18.56
2022-08-18T01:57:13.421Z,18.53
2022-08-18T01:58:15.223Z,18.42
2022-08-18T01:59:16.929Z,18.50
2022-08-18T02:00:18.901Z,18.48
2022-08-18T02:01:22.627Z,18.49
2022-08-18T02:02:37.422Z,18.52
2022-08-18T02:03:45.017Z,18.48
2022-08-18T02:04:47.537Z,18.50
2022-08-18T02:05:50.974Z,18.46
2022-08-18T02:06:53.186Z,18.45
2022-08-18T02:07:55.185Z,18.46
2022-08-18T02:08:56.798Z,18.47
2022-08-18T02:09:59.262Z,18.44
2022-08-18T02:11:01.522Z,18.37
2022-08-18T02:12:04.059Z,18.35
2022-08-18T02:13:06.371Z,18.26
2022-08-18T02:14:07.969Z,18.19
2022-08-18T02:15:10.173Z,18.25
2022-08-18T02:16:11.725Z,18.21
2022-08-18T02:17:14.502Z,18.20
2022-08-18T02:18:46.873Z,18.21
2022-08-18T02:19:43.340Z,18.24
2022-08-18T02:20:45.014Z,18.27
2022-08-18T02:21:46.642Z,18.26
2022-08-18T02:22:49.248Z,18.27
2022-08-18T02:23:53.551Z,18.25
2022-08-18T02:24:57.106Z,18.27
2022-08-18T02:25:59.097Z,18.29
2022-08-18T02:27:00.928Z,18.30
2022-08-18T02:28:02.668Z,18.31
2022-08-18T02:29:04.324Z,18.30
2022-08-18T02:30:11.715Z,18.28
2022-08-18T02:31:17.417Z,18.24
2022-08-18T02:32:19.122Z,18.22
2022-08-18T02:33:21.320Z,18.29
2022-08-18T02:34:23.036Z,18.30
2022-08-18T02:35:24.830Z,18.25
2022-08-18T02:36:26.630Z,18.24
2022-08-18T02:37:28.269Z,18.34
2022-08-18T02:38:30.709Z,18.31
2022-08-18T02:39:37.956Z,18.32
2022-08-18T02:40:39.705Z,18.26
2022-08-18T02:41:42.055Z,18.25
2022-08-18T02:42:45.387Z,18.30
2022-08-18T02:43:48.387Z,18.31
2022-08-18T02:44:50.210Z,18.36
2022-08-18T02:45:51.814Z,18.34
2022-08-18T02:46:54.608Z,18.37
2022-08-18T02:47:56.991Z,18.32
2022-08-18T02:49:01.727Z,18.32
2022-08-18T02:50:03.710Z,18.31
2022-08-18T02:51:05.453Z,18.34
2022-08-18T02:52:07.060Z,18.28
2022-08-18T02:53:08.630Z,18.24
2022-08-18T02:54:11.499Z,18.16
2022-08-18T02:55:13.392Z,18.22
2022-08-18T02:56:32.812Z,18.35
2022-08-18T02:57:45.807Z,18.38
2022-08-18T02:58:47.970Z,18.40
2022-08-18T02:59:49.516Z,18.36
2022-08-18T03:00:51.509Z,18.35
2022-08-18T03:02:00.313Z,18.46
2022-08-18T03:03:02.904Z,18.48
2022-08-18T03:04:06.598Z,18.49
2022-08-18T03:05:08.756Z,18.53
2022-08-18T03:06:17.917Z,18.55
2022-08-18T03:07:19.539Z,18.64
2022-08-18T03:08:21.046Z,18.67
2022-08-18T03:09:23.119Z,18.77
2022-08-18T03:10:33.069Z,18.81
2022-08-18T03:11:36.485Z,18.83
2022-08-18T03:12:38.072Z,18.93
2022-08-18T03:13:39.630Z,18.95
2022-08-18T03:14:41.237Z,18.96
2022-08-18T03:15:44.624Z,18.98
2022-08-18T03:16:54.590Z,19.08
2022-08-18T03:17:57.434Z,19.09
2022-08-18T03:19:00.914Z,19.10
2022-08-18T03:20:02.974Z,18.87
2022-08-18T03:21:10.048Z,19.14
2022-08-18T03:22:28.353Z,18.90
2022-08-18T03:23:31.377Z,19.18
2022-08-18T03:24:33.139Z,19.19
2022-08-18T03:25:34.792Z,19.21
2022-08-18T03:26:41.825Z,19.21
2022-08-18T03:27:43.442Z,19.25
2022-08-18T03:28:48.557Z,19.25
2022-08-18T03:29:51.244Z,19.19
2022-08-18T03:30:52.761Z,19.31
2022-08-18T03:31:54.521Z,19.30
2022-08-18T03:32:57.727Z,19.31
2022-08-18T03:34:01.625Z,19.27
2022-08-18T03:35:04.021Z,19.30
2022-08-18T03:36:07.136Z,19.31
2022-08-18T03:37:09.244Z,19.28
2022-08-18T03:38:10.814Z,19.27
2022-08-18T03:39:13.157Z,19.28
2022-08-18T03:40:14.761Z,19.26
2022-08-18T03:41:57.936Z,19.24
2022-08-18T03:42:42.051Z,19.23
2022-08-18T03:43:50.726Z,19.21
2022-08-18T03:44:53.386Z,19.17
2022-08-18T03:45:55.105Z,19.16
2022-08-18T03:46:57.471Z,19.18
2022-08-18T03:48:00.611Z,19.18
2022-08-18T03:49:02.293Z,19.17
2022-08-18T03:50:04.086Z,19.14
2022-08-18T03:51:08.264Z,19.10
2022-08-18T03:52:10.879Z,19.15
2022-08-18T03:53:12.479Z,19.13
2022-08-18T03:54:16.511Z,19.07
2022-08-18T03:55:19.016Z,18.74
2022-08-18T03:56:24.962Z,18.80
2022-08-18T03:57:26.554Z,18.67
2022-08-18T03:58:28.418Z,18.44
2022-08-18T03:59:32.253Z,18.43
2022-08-18T04:00:38.208Z,18.37
2022-08-18T04:01:42.481Z,18.30
2022-08-18T04:02:44.097Z,18.25
2022-08-18T04:03:51.754Z,18.21
2022-08-18T04:04:54.105Z,18.20
2022-08-18T04:05:56.804Z,18.06
2022-08-18T04:07:04.581Z,18.15
2022-08-18T04:08:06.993Z,18.13
2022-08-18T04:09:11.985Z,18.13
2022-08-18T04:10:19.689Z,18.10
2022-08-18T04:11:22.697Z,18.03
2022-08-18T04:12:24.351Z,17.98
2022-08-18T04:13:25.959Z,17.98
2022-08-18T04:14:30.960Z,17.96
2022-08-18T04:15:33.043Z,17.97
2022-08-18T04:16:38.210Z,18.00
2022-08-18T04:17:56.023Z,18.06
2022-08-18T04:19:04.802Z,18.01
2022-08-18T04:20:06.839Z,18.03
2022-08-18T04:21:13.534Z,18.03
2022-08-18T04:22:18.163Z,18.00
2022-08-18T04:23:21.188Z,17.99
2022-08-18T04:24:23.168Z,17.86
2022-08-18T04:25:30.756Z,17.95
2022-08-18T04:26:40.543Z,17.95
2022-08-18T04:27:43.812Z,17.91
2022-08-18T04:28:45.512Z,17.88
2022-08-18T04:29:47.731Z,17.88
2022-08-18T04:30:49.348Z,17.88
2022-08-18T04:31:52.156Z,17.90
2022-08-18T04:32:53.794Z,17.91
2022-08-18T04:33:58.406Z,17.93
2022-08-18T04:35:02.712Z,17.94
2022-08-18T04:36:13.106Z,17.99
2022-08-18T04:37:20.577Z,17.98
2022-08-18T04:38:22.980Z,18.02
2022-08-18T04:39:25.693Z,18.03
2022-08-18T04:40:27.428Z,18.05
2022-08-18T04:41:29.435Z,18.07
2022-08-18T04:42:31.052Z,18.07
2022-08-18T04:43:33.668Z,18.07
2022-08-18T04:44:37.951Z,18.02
2022-08-18T04:45:40.113Z,17.99
2022-08-18T04:46:51.802Z,17.97
2022-08-18T04:47:53.759Z,17.99
2022-08-18T04:49:01.330Z,17.98
2022-08-18T04:50:03.685Z,17.76
2022-08-18T04:52:37.159Z,17.98
2022-08-18T04:52:50.592Z,17.88
2022-08-18T04:53:52.709Z,17.99
2022-08-18T04:54:54.455Z,18.03
2022-08-18T04:55:56.684Z,18.09
2022-08-18T04:56:58.281Z,18.09
2022-08-18T04:58:00.650Z,18.11
2022-08-18T04:59:06.495Z,18.07
2022-08-18T05:00:13.230Z,18.06
2022-08-18T05:01:17.591Z,18.00
2022-08-18T05:02:21.163Z,18.00
2022-08-18T05:03:26.669Z,17.98
2022-08-18T05:04:29.219Z,17.97
2022-08-18T05:05:30.895Z,17.96
2022-08-18T05:06:33.120Z,17.97
2022-08-18T05:07:34.745Z,17.98
2022-08-18T05:08:36.428Z,17.98
2022-08-18T05:09:41.065Z,17.90
2022-08-18T05:10:43.173Z,17.93
2022-08-18T05:11:44.782Z,17.90
2022-08-18T05:12:47.848Z,17.93
2022-08-18T05:13:51.432Z,17.94
2022-08-18T05:14:53.874Z,17.93
2022-08-18T05:16:10.018Z,17.89
2022-08-18T05:17:14.406Z,17.95
2022-08-18T05:18:16.053Z,17.99
2022-08-18T05:19:23.283Z,18.02
2022-08-18T05:20:27.769Z,18.03
2022-08-18T05:21:30.507Z,18.03
2022-08-18T05:22:40.673Z,18.02
2022-08-18T05:23:43.980Z,18.02
2022-08-18T05:24:46.342Z,18.16
2022-08-18T05:25:48.124Z,18.25
2022-08-18T05:26:55.836Z,18.32
2022-08-18T05:27:57.426Z,18.36
2022-08-18T05:29:17.590Z,18.33
2022-08-18T05:30:21.436Z,18.49
2022-08-18T05:31:26.519Z,18.51
2022-08-18T05:32:47.232Z,18.48
2022-08-18T05:33:50.922Z,18.49
2022-08-18T05:34:52.674Z,18.47
2022-08-18T05:36:04.489Z,18.49
2022-08-18T05:37:35.721Z,18.55
2022-08-18T05:39:13.145Z,18.58
2022-08-18T05:40:15.452Z,18.53
2022-08-18T05:41:25.000Z,18.54
2022-08-18T05:42:29.340Z,18.63
2022-08-18T05:43:31.185Z,18.65
2022-08-18T05:44:35.765Z,18.67
2022-08-18T05:45:39.720Z,18.71
2022-08-18T05:46:59.465Z,18.73
2022-08-18T05:48:01.551Z,18.56
2022-08-18T05:49:03.554Z,18.49
2022-08-18T05:50:11.549Z,18.52
2022-08-18T05:51:20.179Z,18.50
2022-08-18T05:52:25.953Z,18.54
2022-08-18T05:53:48.965Z,18.59
2022-08-18T05:55:14.280Z,18.58
2022-08-18T05:56:39.861Z,18.64
2022-08-18T05:57:54.966Z,18.63
2022-08-18T05:58:57.420Z,18.64
2022-08-18T05:59:59.149Z,18.65
2022-08-18T06:01:04.244Z,18.63
2022-08-18T06:02:20.961Z,18.67
2022-08-18T06:03:29.283Z,18.61
2022-08-18T06:04:48.018Z,18.64
2022-08-18T06:05:54.575Z,18.55
2022-08-18T06:06:57.837Z,18.43
2022-08-18T06:08:03.377Z,18.50
2022-08-18T06:09:15.076Z,18.52
2022-08-18T06:10:16.812Z,18.53
2022-08-18T06:11:22.458Z,18.54
2022-08-18T06:12:46.263Z,18.63
2022-08-18T06:13:49.990Z,18.68
2022-08-18T06:15:06.040Z,18.68
2022-08-18T06:16:19.539Z,18.75
2022-08-18T06:17:23.762Z,18.69
2022-08-18T06:18:48.575Z,18.62
2022-08-18T06:19:53.128Z,18.81
2022-08-18T06:21:39.504Z,18.82
2022-08-18T06:22:59.367Z,18.84
2022-08-18T06:24:22.016Z,18.87
2022-08-18T06:25:37.538Z,18.92
2022-08-18T06:26:41.805Z,19.00
2022-08-18T06:28:03.407Z,18.97
2022-08-18T06:29:24.921Z,19.01
2022-08-18T06:30:32.640Z,19.05
2022-08-18T06:32:28.178Z,18.87
2022-08-18T06:33:31.655Z,18.83
2022-08-18T06:35:04.547Z,18.78
2022-08-18T06:36:28.460Z,18.74
2022-08-18T06:38:08.653Z,18.75
2022-08-18T06:39:50.129Z,18.78
2022-08-18T06:41:08.955Z,18.73
2022-08-18T06:42:30.769Z,18.97
2022-08-18T06:43:35.041Z,19.01
2022-08-18T06:44:42.542Z,19.03
2022-08-18T06:45:52.022Z,18.99
2022-08-18T06:47:08.959Z,19.04
2022-08-18T06:48:27.291Z,19.10
2022-08-18T06:49:54.874Z,19.15
2022-08-18T06:51:00.782Z,19.19
2022-08-18T06:52:52.963Z,19.18
2022-08-18T06:54:07.298Z,19.14
2022-08-18T06:55:16.895Z,19.18
2022-08-18T06:56:28.418Z,19.20
2022-08-18T06:57:40.281Z,19.14
2022-08-18T06:58:41.919Z,19.08
2022-08-18T06:59:54.087Z,19.02
2022-08-18T07:01:02.323Z,19.01
2022-08-18T07:02:23.319Z,19.00
2022-08-18T07:03:48.972Z,18.97
2022-08-18T07:05:20.585Z,18.80
2022-08-18T07:06:22.276Z,18.67
2022-08-18T07:07:40.745Z,18.44
2022-08-18T07:08:45.119Z,18.62
2022-08-18T07:09:48.082Z,18.64
2022-08-18T07:10:52.314Z,18.66
2022-08-18T07:12:07.720Z,18.65
2022-08-18T07:13:20.699Z,18.69
2022-08-18T07:14:25.599Z,18.71
2022-08-18T07:15:27.180Z,18.74
2022-08-18T07:16:47.390Z,18.78
2022-08-18T07:17:50.332Z,18.83
2022-08-18T07:18:52.565Z,18.88
2022-08-18T07:20:00.177Z,18.90
2022-08-18T07:21:02.088Z,18.90
2022-08-18T07:22:14.691Z,18.90
2022-08-18T07:23:33.907Z,18.90
2022-08-18T07:24:44.614Z,18.89
2022-08-18T07:25:50.727Z,18.93
2022-08-18T07:27:10.606Z,18.67
2022-08-18T07:28:49.138Z,18.89
2022-08-18T07:29:59.692Z,18.91
2022-08-18T07:31:35.037Z,18.89
2022-08-18T07:32:44.432Z,18.89
2022-08-18T07:34:12.433Z,18.92
2022-08-18T07:35:19.557Z,18.93
2022-08-18T07:36:25.262Z,18.99
2022-08-18T07:37:49.123Z,19.03
2022-08-18T07:39:11.611Z,19.05
2022-08-18T07:40:27.539Z,19.12
2022-08-18T07:41:49.078Z,19.17
2022-08-18T07:43:06.207Z,19.18
2022-08-18T07:44:24.509Z,19.16
2022-08-18T07:45:35.842Z,19.12
2022-08-18T07:47:01.099Z,19.09
2022-08-18T07:48:38.155Z,19.08
2022-08-18T07:50:13.532Z,19.07
2022-08-18T07:51:18.572Z,19.11
2022-08-18T07:52:36.049Z,19.09
2022-08-18T07:53:56.196Z,19.08
2022-08-18T07:55:10.133Z,19.05
2022-08-18T07:56:23.168Z,19.01
2022-08-18T07:57:44.900Z,19.04
2022-08-18T07:59:26.630Z,19.08
2022-08-18T08:02:35.482Z,19.18
2022-08-18T08:04:36.287Z,19.13
2022-08-18T08:05:52.861Z,19.39
2022-08-18T08:07:23.921Z,19.46
2022-08-18T08:08:30.146Z,19.58
2022-08-18T08:09:51.257Z,19.62
2022-08-18T08:11:09.452Z,19.67
2022-08-18T08:12:30.991Z,19.65
2022-08-18T08:13:54.259Z,19.67
2022-08-18T08:15:07.818Z,19.61
2022-08-18T08:16:18.031Z,19.68
2022-08-18T08:17:32.451Z,19.65
2022-08-18T08:18:42.935Z,19.64
2022-08-18T08:20:08.584Z,19.71
2022-08-18T08:21:16.323Z,19.81
2022-08-18T08:22:29.478Z,19.82
2022-08-18T08:23:45.027Z,19.73
2022-08-18T08:25:44.646Z,19.71
2022-08-18T08:26:52.072Z,19.83
2022-08-18T08:28:43.080Z,20.07
2022-08-18T08:30:01.346Z,20.27
2022-08-18T08:31:36.554Z,20.49
2022-08-18T08:33:19.600Z,20.65
2022-08-18T08:34:35.947Z,20.63
2022-08-18T08:35:50.038Z,20.70
2022-08-18T08:37:02.969Z,20.68
2022-08-18T08:38:39.214Z,20.60
2022-08-18T08:39:48.450Z,20.47
2022-08-18T08:41:14.375Z,20.46
2022-08-18T08:42:31.399Z,20.54
2022-08-18T08:43:45.455Z,20.53
2022-08-18T08:45:00.044Z,20.54
2022-08-18T08:46:17.618Z,20.09
2022-08-18T08:47:33.043Z,20.36
2022-08-18T08:48:41.353Z,20.35
2022-08-18T08:49:54.704Z,20.44
2022-08-18T08:51:37.806Z,20.37
2022-08-18T08:52:47.474Z,20.29
2022-08-18T08:54:00.714Z,20.22
2022-08-18T08:55:05.503Z,20.29
2022-08-18T08:56:09.713Z,20.38
2022-08-18T08:57:14.106Z,20.50
2022-08-18T08:58:56.321Z,20.72
2022-08-18T09:00:02.887Z,20.69
2022-08-18T09:01:06.067Z,20.66
2022-08-18T09:02:47.724Z,20.63
2022-08-18T09:03:59.557Z,20.77
2022-08-18T09:05:19.922Z,20.82
2022-08-18T09:06:26.326Z,21.27
2022-08-18T09:07:40.147Z,21.47
2022-08-18T09:09:07.679Z,21.16
2022-08-18T09:10:35.219Z,21.40
2022-08-18T09:12:07.564Z,21.80
2022-08-18T09:13:38.540Z,21.94
2022-08-18T09:14:52.998Z,21.96
2022-08-18T09:16:15.373Z,22.10
2022-08-18T09:17:41.578Z,21.99
2022-08-18T09:18:50.628Z,21.98
2022-08-18T09:19:55.284Z,22.10
2022-08-18T09:21:18.517Z,22.12
2022-08-18T09:22:36.561Z,21.84
2022-08-18T09:23:44.331Z,21.93
2022-08-18T09:24:49.345Z,21.82
2022-08-18T09:25:56.470Z,22.03
2022-08-18T09:27:03.758Z,21.88
2022-08-18T09:28:12.279Z,22.03
2022-08-18T09:29:24.031Z,22.14
2022-08-18T09:31:11.655Z,22.20
2022-08-18T09:32:19.088Z,21.95
2022-08-18T09:33:48.370Z,21.86
2022-08-18T09:34:51.364Z,21.91
2022-08-18T09:36:19.987Z,21.86
2022-08-18T09:37:28.976Z,21.83
2022-08-18T09:38:55.666Z,21.75
2022-08-18T09:40:58.997Z,21.75
2022-08-18T09:42:00.426Z,21.67
2022-08-18T09:45:01.462Z,21.19
2022-08-18T09:46:06.237Z,21.03
2022-08-18T09:47:08.682Z,21.13
2022-08-18T09:48:25.089Z,21.15
2022-08-18T09:50:37.147Z,21.34
2022-08-18T09:50:55.485Z,20.87
2022-08-18T09:52:00.258Z,20.88
2022-08-18T09:53:36.735Z,21.05
2022-08-18T09:54:53.037Z,21.10
2022-08-18T09:56:01.271Z,21.11
2022-08-18T09:57:16.524Z,21.04
2022-08-18T09:58:25.707Z,21.02
2022-08-18T09:59:34.251Z,20.98
2022-08-18T10:00:36.362Z,20.97
2022-08-18T10:01:41.595Z,20.87
2022-08-18T10:02:47.631Z,20.83
2022-08-18T10:04:15.358Z,20.81
2022-08-18T10:05:20.029Z,20.86
2022-08-18T10:06:27.635Z,20.78
2022-08-18T10:07:43.824Z,20.75
2022-08-18T10:09:17.645Z,20.86
2022-08-18T10:11:01.756Z,20.79
2022-08-18T10:12:28.828Z,20.79
2022-08-18T10:13:55.283Z,20.89
2022-08-18T10:15:32.892Z,20.98
2022-08-18T10:17:23.509Z,21.19
2022-08-18T10:18:43.123Z,21.36
2022-08-18T10:20:05.190Z,21.74
2022-08-18T10:21:18.861Z,21.98
2022-08-18T10:22:52.697Z,22.20
2022-08-18T10:25:42.255Z,22.56
2022-08-18T10:26:54.685Z,22.80
2022-08-18T10:27:57.085Z,23.09
2022-08-18T10:29:06.212Z,23.18
2022-08-18T10:30:30.431Z,23.39
2022-08-18T10:31:58.626Z,23.29
2022-08-18T10:34:39.671Z,23.05
2022-08-18T10:35:41.246Z,23.03
2022-08-18T10:37:06.342Z,22.87
2022-08-18T10:38:18.940Z,22.80
2022-08-18T10:39:27.315Z,22.97
2022-08-18T10:40:30.058Z,22.90
2022-08-18T10:41:33.274Z,22.86
2022-08-18T10:42:44.612Z,22.87
2022-08-18T10:43:55.686Z,22.76
2022-08-18T10:45:24.986Z,22.96
2022-08-18T10:46:35.043Z,22.97
2022-08-18T10:47:38.704Z,22.88
2022-08-18T10:48:40.634Z,22.98
2022-08-18T10:49:50.185Z,23.13
2022-08-18T10:51:21.326Z,23.15
2022-08-18T10:52:46.255Z,22.32
2022-08-18T10:54:51.852Z,22.49
2022-08-18T10:56:09.379Z,22.70
2022-08-18T10:57:24.855Z,22.43
2022-08-18T10:58:40.835Z,22.51
2022-08-18T10:59:57.553Z,22.76
2022-08-18T11:01:20.681Z,22.48
2022-08-18T11:02:46.303Z,22.53
2022-08-18T11:04:28.443Z,22.33
2022-08-18T11:07:02.214Z,23.33
2022-08-18T11:08:17.584Z,24.03
2022-08-18T11:09:27.454Z,24.77
2022-08-18T11:10:57.522Z,25.60
2022-08-18T11:12:02.209Z,26.13
2022-08-18T11:13:41.339Z,26.83
2022-08-18T11:15:01.312Z,27.51
2022-08-18T11:16:50.787Z,28.10
2022-08-18T11:18:11.475Z,28.66
2022-08-18T11:19:16.812Z,28.48
2022-08-18T11:20:31.577Z,28.86
2022-08-18T11:21:41.718Z,29.22
2022-08-18T11:22:57.260Z,29.68
2022-08-18T11:24:08.170Z,30.04
2022-08-18T11:25:34.945Z,30.09
2022-08-18T11:26:52.606Z,30.06
2022-08-18T11:27:56.392Z,30.34
2022-08-18T11:28:57.976Z,30.57
2022-08-18T11:30:02.485Z,31.08
2022-08-18T11:31:06.532Z,31.20
2022-08-18T11:32:28.397Z,31.33
2022-08-18T11:33:31.154Z,30.50
2022-08-18T11:35:18.518Z,29.76
2022-08-18T11:36:30.864Z,29.37
2022-08-18T11:37:51.526Z,29.55
2022-08-18T11:38:56.397Z,29.71
2022-08-18T11:40:01.831Z,30.53
2022-08-18T11:41:24.254Z,31.16
2022-08-18T11:42:38.863Z,31.14
2022-08-18T11:43:43.404Z,31.36
2022-08-18T11:44:49.351Z,31.95
2022-08-18T11:45:57.829Z,31.71
2022-08-18T11:47:17.917Z,30.85
2022-08-18T11:48:37.637Z,31.22
2022-08-18T11:50:13.597Z,31.77
2022-08-18T11:51:23.493Z,32.48
2022-08-18T11:52:34.668Z,32.34
2022-08-18T11:53:55.587Z,31.90
2022-08-18T11:55:14.475Z,32.38
2022-08-18T11:56:30.618Z,32.42
2022-08-18T11:59:53.990Z,33.30
2022-08-18T12:00:48.697Z,33.06
2022-08-18T12:01:54.639Z,32.91
2022-08-18T12:03:24.833Z,32.89
2022-08-18T12:04:37.487Z,32.97
2022-08-18T12:05:56.634Z,33.41
2022-08-18T12:07:14.889Z,33.57
2022-08-18T12:08:57.667Z,34.20
2022-08-18T12:10:26.431Z,33.43
2022-08-18T12:11:34.400Z,32.91
2022-08-18T12:12:49.984Z,32.12
2022-08-18T12:14:29.816Z,31.51
2022-08-18T12:15:45.296Z,31.80
2022-08-18T12:16:50.850Z,31.15
2022-08-18T12:17:55.788Z,31.52
2022-08-18T12:18:57.512Z,31.96
2022-08-18T12:20:02.667Z,31.79
2022-08-18T12:21:05.812Z,31.87
2022-08-18T12:22:17.434Z,32.11
2022-08-18T12:23:19.409Z,32.76
2022-08-18T12:24:34.519Z,33.03
2022-08-18T12:25:38.897Z,32.49
2022-08-18T12:26:47.218Z,32.10
2022-08-18T12:27:52.931Z,31.87
2022-08-18T12:28:54.794Z,31.54
2022-08-18T12:30:05.979Z,31.03
2022-08-18T12:31:15.024Z,30.51
2022-08-18T12:32:41.433Z,29.99
2022-08-18T12:33:47.838Z,29.64
2022-08-18T12:35:09.513Z,29.88
2022-08-18T12:36:12.199Z,29.77
2022-08-18T12:37:57.548Z,29.55
2022-08-18T12:38:45.605Z,29.38
2022-08-18T12:39:56.191Z,29.30
2022-08-18T12:40:59.760Z,29.06
2022-08-18T12:42:02.246Z,29.21
2022-08-18T12:43:05.817Z,28.99
2022-08-18T12:44:13.132Z,28.90
2022-08-18T12:45:15.751Z,28.71
2022-08-18T12:46:18.248Z,28.69
2022-08-18T12:47:25.669Z,28.79
2022-08-18T12:48:32.737Z,28.84
2022-08-18T12:49:36.388Z,29.03
2022-08-18T12:50:49.684Z,29.56
2022-08-18T12:51:52.685Z,29.61
2022-08-18T12:52:57.796Z,29.70
2022-08-18T12:54:00.366Z,29.97
2022-08-18T12:55:02.081Z,29.98
2022-08-18T12:56:08.543Z,29.79
2022-08-18T12:57:33.238Z,29.51
2022-08-18T12:58:41.636Z,29.35
2022-08-18T12:59:43.251Z,29.56
2022-08-18T13:00:48.386Z,29.80
2022-08-18T13:01:58.678Z,29.97
2022-08-18T13:03:02.255Z,30.23
2022-08-18T13:04:12.981Z,30.44
2022-08-18T13:05:19.709Z,30.13
2022-08-18T13:06:31.402Z,30.90
2022-08-18T13:07:33.359Z,31.41
2022-08-18T13:08:38.084Z,31.78
2022-08-18T13:09:54.179Z,31.60
2022-08-18T13:10:58.073Z,31.34
2022-08-18T13:12:00.386Z,30.94
2022-08-18T13:13:02.138Z,30.70
2022-08-18T13:14:08.948Z,30.66
2022-08-18T13:15:11.206Z,30.93
2022-08-18T13:16:16.297Z,31.30
2022-08-18T13:17:30.679Z,31.21
2022-08-18T13:18:36.935Z,30.99
2022-08-18T13:19:39.368Z,30.88
2022-08-18T13:20:45.297Z,30.55
2022-08-18T13:21:46.925Z,30.67
2022-08-18T13:22:51.530Z,30.64
2022-08-18T13:23:55.050Z,30.35
2022-08-18T13:24:56.686Z,30.12
2022-08-18T13:26:01.866Z,29.82
2022-08-18T13:27:04.384Z,29.73
2022-08-18T13:28:20.340Z,30.14
2022-08-18T13:29:23.824Z,30.49
2022-08-18T13:30:30.946Z,30.65
2022-08-18T13:31:34.069Z,30.85
2022-08-18T13:32:58.239Z,31.27
2022-08-18T13:34:03.964Z,31.76
2022-08-18T13:35:13.484Z,32.01
2022-08-18T13:36:15.390Z,31.96
2022-08-18T13:37:18.742Z,32.40
2022-08-18T13:38:27.654Z,32.65
2022-08-18T13:39:34.080Z,32.44
2022-08-18T13:40:37.853Z,32.21
2022-08-18T13:41:49.744Z,32.41
2022-08-18T13:42:53.604Z,32.50
2022-08-18T13:43:56.354Z,32.34
2022-08-18T13:45:25.412Z,31.86
2022-08-18T13:46:29.867Z,31.42
2022-08-18T13:47:33.473Z,31.23
2022-08-18T13:48:41.788Z,31.16
2022-08-18T13:49:43.775Z,31.45
2022-08-18T13:51:01.740Z,31.93
2022-08-18T13:52:12.236Z,32.17
2022-08-18T13:53:29.643Z,31.81
2022-08-18T13:54:35.883Z,31.63
2022-08-18T13:55:37.810Z,31.48
2022-08-18T13:56:39.783Z,31.83
2022-08-18T13:57:48.354Z,32.56
2022-08-18T13:58:53.167Z,33.00
2022-08-18T13:59:55.326Z,33.07
2022-08-18T14:01:39.617Z,32.76
2022-08-18T14:02:26.775Z,32.71
2022-08-18T14:03:42.359Z,32.49
2022-08-18T14:04:49.467Z,32.14
2022-08-18T14:06:01.476Z,32.10
2022-08-18T14:07:09.972Z,32.09
2022-08-18T14:08:19.106Z,32.06
2022-08-18T14:09:36.076Z,31.81
2022-08-18T14:10:39.096Z,31.91
2022-08-18T14:11:41.708Z,32.01
2022-08-18T14:12:45.773Z,32.29
2022-08-18T14:13:48.862Z,32.39
2022-08-18T14:14:52.935Z,32.00
2022-08-18T14:15:56.361Z,32.19
2022-08-18T14:16:59.221Z,32.19
2022-08-18T14:18:01.064Z,31.95
2022-08-18T14:19:26.397Z,31.50
2022-08-18T14:20:49.696Z,31.49
2022-08-18T14:22:13.329Z,31.81
2022-08-18T14:23:34.179Z,31.82
2022-08-18T14:25:06.289Z,31.81
2022-08-18T14:26:26.852Z,31.57
2022-08-18T14:27:34.780Z,32.07
2022-08-18T14:28:38.433Z,32.09
2022-08-18T14:29:46.892Z,31.79
2022-08-18T14:30:54.681Z,31.69
2022-08-18T14:31:57.544Z,31.35
2022-08-18T14:32:59.596Z,31.65
2022-08-18T14:34:04.285Z,31.83
2022-08-18T14:35:31.778Z,31.57
2022-08-18T14:36:30.740Z,31.53
2022-08-18T14:37:33.942Z,31.62
2022-08-18T14:38:36.555Z,31.50
2022-08-18T14:39:39.898Z,31.68
2022-08-18T14:40:45.589Z,31.89
2022-08-18T14:41:49.442Z,31.70
2022-08-18T14:42:57.357Z,31.44
2022-08-18T14:44:12.923Z,30.97
2022-08-18T14:45:17.861Z,30.58
2022-08-18T14:46:30.665Z,30.61
2022-08-18T14:47:34.311Z,30.54
2022-08-18T14:48:38.938Z,30.33
2022-08-18T14:49:48.026Z,30.58
2022-08-18T14:50:52.386Z,30.66
2022-08-18T14:51:54.545Z,30.78
2022-08-18T14:52:56.269Z,30.77
2022-08-18T14:53:57.774Z,30.72
2022-08-18T14:54:59.315Z,30.90
2022-08-18T14:56:01.201Z,30.78
2022-08-18T14:57:05.331Z,30.71
2022-08-18T14:58:07.772Z,30.54
2022-08-18T14:59:09.350Z,30.46
2022-08-18T15:00:16.291Z,30.37
2022-08-18T15:01:18.116Z,30.40
2022-08-18T15:02:19.746Z,30.46
2022-08-18T15:03:28.064Z,30.62
2022-08-18T15:04:33.140Z,30.52
2022-08-18T15:05:40.132Z,30.30
2022-08-18T15:06:44.408Z,30.17
2022-08-18T15:07:58.872Z,30.10
2022-08-18T15:09:00.455Z,30.09
2022-08-18T15:10:15.421Z,29.78
2022-08-18T15:11:18.555Z,29.47
2022-08-18T15:12:25.291Z,29.18
2022-08-18T15:13:26.984Z,29.38
2022-08-18T15:14:33.020Z,29.34